Time;durP1;ratioP1;P1;durP2;ratioP2;P2;SDS_P1;SDS_P2;PMS_P1;PMS_P2;Temp;Humidity;BMP_temperature;BMP_pressure;BME280_temperature;BME280_humidity;BME280_pressure;Samples;Min_cycle;Max_cycle;Signal;HPM_P1;HPM_P2
2022/08/11 00:00:37;;;;;;;5.38;3.50;;;18.80;99.90;;;;;;5067230;28;20048;-72
2022/08/11 00:03:06;;;;;;;5.50;3.40;;;18.70;99.90;;;;;;5066852;28;20106;-72
2022/08/11 00:05:43;;;;;;;5.22;3.72;;;18.70;99.90;;;;;;5060825;28;20447;-72
2022/08/11 00:08:10;;;;;;;5.75;3.42;;;18.70;99.90;;;;;;5063258;28;20080;-72
2022/08/11 00:10:37;;;;;;;5.60;3.78;;;18.70;99.90;;;;;;5073798;28;20390;-72
2022/08/11 00:13:06;;;;;;;5.32;3.50;;;18.70;99.90;;;;;;5076113;28;20040;-72
2022/08/11 00:15:44;;;;;;;6.10;3.58;;;18.70;99.90;;;;;;5065727;28;20063;-72
2022/08/11 00:18:11;;;;;;;5.63;3.70;;;18.60;99.90;;;;;;5077161;28;20062;-72
2022/08/11 00:20:41;;;;;;;4.22;3.67;;;18.60;99.90;;;;;;5073945;28;20044;-72
2022/08/11 00:23:09;;;;;;;7.95;3.75;;;18.60;99.90;;;;;;5062661;28;20044;-72
2022/08/11 00:25:40;;;;;;;4.95;3.08;;;18.60;99.90;;;;;;5069426;28;20040;-72
2022/08/11 00:28:29;;;;;;;4.15;3.63;;;18.50;99.90;;;;;;5058016;28;20048;-72
2022/08/11 00:31:07;;;;;;;5.15;3.83;;;18.50;99.90;;;;;;5091879;28;20059;-72
2022/08/11 00:33:43;;;;;;;6.25;3.55;;;18.40;99.90;;;;;;5065492;28;20039;-72
2022/08/11 00:36:13;;;;;;;3.50;3.20;;;18.40;99.90;;;;;;5069603;28;20101;-72
2022/08/11 00:38:41;;;;;;;7.40;3.60;;;18.30;99.90;;;;;;5073276;28;20040;-72
2022/08/11 00:41:19;;;;;;;6.05;3.30;;;18.30;99.90;;;;;;5074124;28;20040;-72
2022/08/11 00:44:16;;;;;;;5.63;3.35;;;18.20;99.90;;;;;;5068240;28;20044;-72
2022/08/11 00:47:05;;;;;;;5.38;4.00;;;18.20;99.90;;;;;;5072563;28;20083;-72
2022/08/11 00:49:46;;;;;;;4.78;3.90;;;18.20;99.90;;;;;;5063724;28;20044;-72
2022/08/11 00:52:17;;;;;;;4.07;3.70;;;18.10;99.90;;;;;;5058656;28;20043;-72
2022/08/11 00:55:22;;;;;;;7.03;3.55;;;18.10;99.90;;;;;;5060726;28;20063;-72
2022/08/11 00:58:37;;;;;;;4.38;3.97;;;18.00;99.90;;;;;;5065745;28;20051;-71
2022/08/11 01:01:20;;;;;;;4.50;4.10;;;18.00;99.90;;;;;;5053758;28;20068;-72
2022/08/11 01:04:28;;;;;;;7.65;3.83;;;18.00;99.90;;;;;;5060329;28;20044;-72
2022/08/11 01:08:01;;;;;;;7.10;3.60;;;18.00;99.90;;;;;;5044564;28;20113;-72
2022/08/11 01:10:51;;;;;;;5.13;3.78;;;18.00;99.90;;;;;;4992665;28;20042;-72
2022/08/11 01:13:54;;;;;;;4.85;3.83;;;17.90;99.90;;;;;;4992760;28;20076;-72
2022/08/11 01:16:22;;;;;;;6.82;3.97;;;17.80;99.90;;;;;;5061751;28;20052;-72
2022/08/11 01:19:17;;;;;;;5.40;4.32;;;17.80;99.90;;;;;;5065822;28;20090;-72
2022/08/11 01:22:07;;;;;;;5.72;3.95;;;17.70;99.90;;;;;;5031904;28;20087;-72
2022/08/11 01:24:58;;;;;;;4.82;4.10;;;17.70;99.90;;;;;;5087866;28;20047;-72
2022/08/11 01:27:42;;;;;;;4.93;4.05;;;17.70;99.90;;;;;;5074845;28;20041;-72
2022/08/11 01:30:26;;;;;;;7.40;4.55;;;17.60;99.90;;;;;;5065930;28;20486;-72
2022/08/11 01:33:32;;;;;;;7.57;4.32;;;17.60;99.90;;;;;;5063174;28;20040;-72
2022/08/11 01:36:48;;;;;;;6.82;4.65;;;17.50;99.90;;;;;;5073294;28;20044;-72
2022/08/11 01:39:17;;;;;;;6.90;4.13;;;17.50;99.90;;;;;;5060286;28;20107;-72
2022/08/11 01:45:14;;;;;;;5.20;4.57;;;17.50;99.90;;;;;;5081566;28;20063;-72
2022/08/11 01:48:07;;;;;;;5.03;4.45;;;17.40;99.90;;;;;;5063619;28;20519;-72
2022/08/11 01:50:52;;;;;;;5.15;4.43;;;17.40;99.90;;;;;;5060478;28;20070;-72
2022/08/11 01:54:11;;;;;;;5.68;4.28;;;17.40;99.90;;;;;;5090557;28;20044;-72
2022/08/11 01:56:37;;;;;;;4.78;4.13;;;17.40;99.90;;;;;;4996853;28;20052;-72
2022/08/11 01:59:20;;;;;;;5.57;4.60;;;17.30;99.90;;;;;;5005196;28;20041;-72
2022/08/11 02:02:05;;;;;;;5.70;4.40;;;17.30;99.90;;;;;;5043468;28;20052;-72
2022/08/11 02:04:50;;;;;;;7.22;4.75;;;17.30;99.90;;;;;;5074428;28;20123;-72
2022/08/11 02:07:19;;;;;;;4.88;4.38;;;17.30;99.90;;;;;;5087415;28;20053;-72
2022/08/11 02:09:54;;;;;;;5.35;4.43;;;17.30;99.90;;;;;;5058256;28;20040;-72
2022/08/11 02:12:38;;;;;;;7.40;4.50;;;17.30;99.90;;;;;;5068457;28;20047;-72
2022/08/11 02:15:10;;;;;;;7.30;4.85;;;17.20;99.90;;;;;;5056120;28;20044;-71
2022/08/11 02:17:47;;;;;;;5.53;4.45;;;17.10;99.90;;;;;;5062594;28;20083;-72
2022/08/11 02:23:40;;;;;;;5.28;4.18;;;17.00;99.90;;;;;;5104219;28;20043;-72
2022/08/11 02:26:22;;;;;;;5.45;4.70;;;16.90;99.90;;;;;;5090278;28;20127;-72
2022/08/11 02:29:25;;;;;;;8.02;4.32;;;16.90;99.90;;;;;;5075545;28;20135;-72
2022/08/11 02:35:08;;;;;;;6.93;5.53;;;16.90;99.90;;;;;;5102682;28;20050;-72
2022/08/11 02:37:43;;;;;;;5.90;5.10;;;16.90;99.90;;;;;;5084554;28;20040;-72
2022/08/11 02:40:37;;;;;;;6.30;5.60;;;16.90;99.90;;;;;;5082248;28;20044;-72
2022/08/11 02:43:37;;;;;;;7.38;5.78;;;16.90;99.90;;;;;;5107070;27;20043;-72
2022/08/11 02:46:27;;;;;;;9.43;5.47;;;16.80;99.90;;;;;;5041379;28;20047;-72
2022/08/11 02:52:24;;;;;;;6.85;5.70;;;16.80;99.90;;;;;;5065779;28;20399;-72
2022/08/11 02:55:05;;;;;;;6.57;5.28;;;16.80;99.90;;;;;;5077145;28;20048;-72
2022/08/11 02:57:42;;;;;;;6.43;5.82;;;16.80;99.90;;;;;;5113902;28;20118;-72
2022/08/11 03:00:11;;;;;;;6.03;5.43;;;16.80;99.90;;;;;;5097472;28;20047;-72
2022/08/11 03:03:04;;;;;;;8.43;5.85;;;16.70;99.90;;;;;;5088102;28;20046;-72
2022/08/11 03:05:43;;;;;;;6.18;5.63;;;16.70;99.90;;;;;;5093437;28;20403;-72
2022/08/11 03:08:32;;;;;;;8.50;6.32;;;16.60;99.90;;;;;;5074956;28;20487;-72
2022/08/11 03:17:40;;;;;;;8.32;6.20;;;16.60;99.90;;;;;;5075306;28;20052;-72
2022/08/11 03:20:29;;;;;;;7.15;6.45;;;16.60;99.90;;;;;;5077001;28;20044;-72
2022/08/11 03:23:18;;;;;;;7.88;6.05;;;16.60;99.90;;;;;;5066792;28;20518;-72
2022/08/11 03:26:04;;;;;;;7.20;6.50;;;16.50;99.90;;;;;;5085665;28;20043;-72
2022/08/11 03:28:40;;;;;;;7.80;6.57;;;16.50;99.90;;;;;;5071341;28;20510;-72
2022/08/11 03:31:35;;;;;;;8.27;7.20;;;16.50;99.90;;;;;;5082081;28;20041;-72
2022/08/11 03:34:10;;;;;;;9.38;6.85;;;16.50;99.90;;;;;;5088349;28;20390;-72
2022/08/11 03:36:56;;;;;;;8.85;7.13;;;16.50;99.90;;;;;;5085451;28;20495;-72
2022/08/11 03:39:53;;;;;;;8.05;6.53;;;16.40;99.90;;;;;;5071302;28;20391;-72
2022/08/11 03:42:42;;;;;;;6.88;6.28;;;16.40;99.90;;;;;;5091236;28;20394;-72
2022/08/11 03:45:32;;;;;;;7.50;6.80;;;16.40;99.90;;;;;;5091304;28;20067;-72
2022/08/11 03:48:15;;;;;;;7.40;6.70;;;16.50;99.90;;;;;;5077888;28;20037;-72
2022/08/11 03:51:19;;;;;;;10.57;7.20;;;16.40;99.90;;;;;;5090085;28;20490;-72
2022/08/11 03:54:14;;;;;;;6.80;6.10;;;16.40;99.90;;;;;;5082076;28;20388;-72
2022/08/11 03:57:14;;;;;;;6.18;5.57;;;16.30;99.90;;;;;;5071284;28;20395;-72
2022/08/11 03:59:52;;;;;;;7.82;6.47;;;16.30;99.90;;;;;;5070544;28;20106;-72
2022/08/11 04:02:51;;;;;;;5.90;5.40;;;16.30;99.90;;;;;;5071078;28;20037;-72
2022/08/11 04:05:36;;;;;;;7.18;6.47;;;16.20;99.90;;;;;;5087039;28;20044;-72
2022/08/11 04:08:43;;;;;;;6.75;6.15;;;16.20;99.90;;;;;;5074072;28;20045;-71
2022/08/11 04:11:36;;;;;;;8.15;7.20;;;16.20;99.90;;;;;;5071008;28;20434;-71
2022/08/11 04:17:27;;;;;;;8.07;6.60;;;16.10;99.90;;;;;;5071473;28;19916;-72
2022/08/11 04:20:31;;;;;;;8.30;6.95;;;16.10;99.90;;;;;;5063103;28;20040;-72
2022/08/11 04:23:15;;;;;;;8.73;6.47;;;16.10;99.90;;;;;;5055581;28;20582;-72
2022/08/11 04:26:32;;;;;;;6.07;5.47;;;16.10;99.90;;;;;;5054836;28;20044;-72
2022/08/11 04:29:04;;;;;;;8.13;7.05;;;16.10;99.90;;;;;;5070296;28;20045;-72
2022/08/11 04:31:53;;;;;;;;;;;16.00;99.90;;;;;;5065075;28;20047;-72
2022/08/11 04:34:35;;;;;;;9.05;6.90;;;16.00;99.90;;;;;;5067983;28;19916;-72
2022/08/11 04:40:28;;;;;;;8.00;7.22;;;16.00;99.90;;;;;;5069388;28;20048;-72
2022/08/11 04:43:20;;;;;;;8.20;7.40;;;15.90;99.90;;;;;;5081095;28;20036;-72
2022/08/11 04:46:17;;;;;;;10.32;8.13;;;16.00;99.90;;;;;;5087281;28;20067;-72
2022/08/11 05:01:58;;;;;;;10.25;8.32;;;16.00;99.90;;;;;;5064455;28;20051;-72
2022/08/11 05:07:58;;;;;;;12.02;9.80;;;16.10;99.90;;;;;;5073500;28;20387;-71
2022/08/11 05:10:33;;;;;;;13.30;9.93;;;16.10;99.90;;;;;;5063028;28;20037;-72
2022/08/11 05:36:28;;;;;;;14.75;11.73;;;16.60;99.90;;;;;;5087562;28;20040;-72
2022/08/11 05:58:37;;;;;;;12.70;9.68;;;17.00;99.90;;;;;;5081622;28;20048;-72
2022/08/11 06:01:04;;;;;;;11.65;10.45;;;17.10;99.90;;;;;;5090903;28;20039;-72
2022/08/11 06:04:12;;;;;;;13.25;9.63;;;17.10;99.90;;;;;;5073138;28;20127;-72
2022/08/11 06:06:19;;;;;;;11.73;9.82;;;17.20;99.90;;;;;;5087686;28;20055;-72
2022/08/11 06:08:45;;;;;;;11.75;9.30;;;17.30;99.90;;;;;;5092806;28;20097;-72
2022/08/11 06:11:12;;;;;;;11.05;9.40;;;17.40;99.90;;;;;;5079338;28;20456;-72
2022/08/11 06:13:44;;;;;;;12.40;9.95;;;17.40;99.90;;;;;;5082215;28;20047;-72
2022/08/11 06:16:13;;;;;;;10.88;8.93;;;17.40;99.90;;;;;;5072959;28;20045;-72
2022/08/11 06:18:39;;;;;;;11.27;8.93;;;17.50;99.90;;;;;;5100104;28;20052;-72
2022/08/11 06:21:08;;;;;;;9.77;8.65;;;17.60;99.90;;;;;;5082526;28;20043;-72
2022/08/11 06:23:34;;;;;;;11.75;8.73;;;17.60;99.90;;;;;;5082651;28;20040;-72
2022/08/11 06:26:00;;;;;;;9.85;8.85;;;17.70;99.90;;;;;;5090282;28;20048;-72
2022/08/11 06:28:37;;;;;;;9.27;8.38;;;17.80;99.90;;;;;;5088511;28;20044;-72
2022/08/11 06:31:12;;;;;;;17.10;8.93;;;17.90;99.90;;;;;;5089991;28;20040;-72
2022/08/11 06:33:50;;;;;;;14.95;8.73;;;18.00;99.90;;;;;;5081637;28;20141;-72
2022/08/11 06:36:29;;;;;;;9.77;8.25;;;18.10;99.90;;;;;;5092622;28;20047;-72
2022/08/11 06:39:22;;;;;;;9.20;7.82;;;18.10;99.90;;;;;;5105836;28;20124;-72
2022/08/11 06:42:02;;;;;;;8.70;7.78;;;18.30;99.90;;;;;;5083461;28;20052;-72
2022/08/11 06:44:42;;;;;;;9.60;7.40;;;18.40;99.90;;;;;;5099212;28;20076;-72
2022/08/11 06:47:11;;;;;;;11.10;7.25;;;18.50;99.90;;;;;;5095795;28;20097;-72
2022/08/11 06:52:34;;;;;;;9.18;6.75;;;18.70;99.90;;;;;;5091399;28;20082;-72
2022/08/11 06:55:10;;;;;;;7.30;6.30;;;18.80;99.90;;;;;;5086357;28;20068;-72
2022/08/11 07:00:27;;;;;;;6.60;5.60;;;19.10;99.90;;;;;;5085749;28;20055;-72
2022/08/11 07:03:09;;;;;;;6.90;5.40;;;19.20;99.90;;;;;;5095508;28;20053;-72
2022/08/11 07:05:52;;;;;;;7.45;5.05;;;19.30;99.90;;;;;;5081947;28;20190;-72
2022/08/11 07:28:54;;;;;;;5.72;3.85;;;20.00;99.90;;;;;;5075056;28;20062;-72
2022/08/11 07:28:56;;;;;;;6.93;2.90;;;20.70;99.90;;;;;;5106409;28;20047;-71
2022/08/11 07:31:34;;;;;;;4.70;3.03;;;20.90;99.90;;;;;;5090282;28;20040;-72
2022/08/11 07:34:20;;;;;;;3.63;3.13;;;21.10;99.90;;;;;;5089004;28;20040;-72
2022/08/11 07:36:54;;;;;;;5.78;2.78;;;21.30;99.90;;;;;;5099855;28;20394;-72
2022/08/11 07:39:34;;;;;;;5.15;3.05;;;21.40;99.90;;;;;;5092819;28;20043;-72
2022/08/11 07:42:07;;;;;;;9.10;3.03;;;21.60;99.90;;;;;;5079399;28;20040;-72
2022/08/11 07:48:10;;;;;;;8.57;3.20;;;21.70;99.90;;;;;;5081249;28;20119;-72
2022/08/11 07:52:52;;;;;;;4.00;2.38;;;22.20;99.90;;;;;;5094846;28;20035;-72
2022/08/11 07:55:21;;;;;;;5.45;2.47;;;22.40;99.90;;;;;;5082888;28;20036;-72
2022/08/11 08:20:15;;;;;;;6.70;2.15;;;23.80;99.90;;;;;;5096613;27;20043;-72
2022/08/11 08:22:41;;;;;;;7.75;2.05;;;23.90;99.90;;;;;;5094302;28;20533;-72
2022/08/11 08:25:07;;;;;;;3.90;1.50;;;24.10;99.90;;;;;;5105465;28;20035;-72
2022/08/11 08:27:34;;;;;;;3.55;1.33;;;24.30;99.90;;;;;;5093058;28;20044;-72
2022/08/11 08:32:48;;;;;;;6.15;1.55;;;24.50;99.90;;;;;;5094502;28;20051;-72
2022/08/11 08:35:14;;;;;;;6.88;1.50;;;24.70;99.90;;;;;;5085835;28;20506;-72
2022/08/11 08:37:40;;;;;;;8.07;1.45;;;24.90;99.90;;;;;;5074222;28;20478;-72
2022/08/11 08:40:08;;;;;;;3.22;1.40;;;25.00;99.90;;;;;;5086676;28;20044;-72
2022/08/11 08:42:44;;;;;;;7.97;1.70;;;25.30;99.90;;;;;;5073946;28;20090;-72
2022/08/11 08:45:14;;;;;;;4.65;1.50;;;25.40;99.90;;;;;;5073887;28;20055;-72
2022/08/11 08:47:59;;;;;;;6.78;1.60;;;25.50;99.90;;;;;;5074378;28;20044;-72
2022/08/11 08:51:33;;;;;;;10.05;1.80;;;25.70;99.30;;;;;;5110069;28;20123;-72
2022/08/11 08:53:21;;;;;;;5.90;1.38;;;25.90;96.90;;;;;;5092586;28;20111;-72
2022/08/11 08:55:49;;;;;;;;;;;26.10;99.00;;;;;;5089405;28;20040;-72
2022/08/11 08:58:18;;;;;;;3.13;1.27;;;26.20;99.80;;;;;;5073268;28;20344;-72
2022/08/11 09:00:45;;;;;;;6.00;1.60;;;26.40;98.40;;;;;;5109278;28;20043;-72
2022/08/11 09:03:12;;;;;;;3.80;1.30;;;26.50;98.00;;;;;;5093668;28;20039;-72
2022/08/11 09:05:39;;;;;;;8.07;1.35;;;26.70;96.70;;;;;;5079980;28;20435;-72
2022/08/11 09:08:06;;;;;;;3.00;1.00;;;26.90;96.20;;;;;;5110561;28;20131;-72
2022/08/11 09:10:33;;;;;;;2.90;1.30;;;27.00;93.40;;;;;;5093361;28;20032;-72
2022/08/11 09:13:03;;;;;;;4.70;1.20;;;27.20;92.50;;;;;;5077386;28;20391;-72
2022/08/11 09:15:28;;;;;;;5.18;1.30;;;27.30;91.90;;;;;;5079623;28;20097;-72
2022/08/11 09:18:02;;;;;;;3.15;1.30;;;27.40;91.40;;;;;;5093552;28;20043;-72
2022/08/11 09:20:34;;;;;;;5.65;1.38;;;27.50;90.00;;;;;;5088774;28;20509;-72
2022/08/11 09:28:36;;;;;;;3.97;1.20;;;28.10;81.40;;;;;;5093062;28;20089;-72
2022/08/11 09:31:04;;;;;;;2.22;1.20;;;28.20;80.70;;;;;;5077830;28;20047;-72
2022/08/11 09:33:31;;;;;;;6.05;1.52;;;28.30;78.60;;;;;;5089757;28;20089;-72
2022/08/11 09:40:27;;;;;;;4.25;1.77;;;28.50;75.10;;;;;;5092864;28;20075;-72
2022/08/11 09:41:31;;;;;;;11.75;1.48;;;28.90;69.20;;;;;;5077554;28;20079;-72
2022/08/11 09:46:43;;;;;;;3.78;1.35;;;29.10;69.80;;;;;;5116311;28;20412;-72
2022/08/11 09:49:09;;;;;;;8.73;1.58;;;29.30;67.40;;;;;;5100107;28;20044;-72
2022/08/11 09:51:35;;;;;;;3.17;1.30;;;29.50;69.00;;;;;;5105840;28;20044;-72
2022/08/11 09:54:05;;;;;;;2.65;1.17;;;29.60;67.20;;;;;;5086463;28;20039;-72
2022/08/11 09:59:19;;;;;;;7.68;1.55;;;29.90;63.00;;;;;;5082528;28;20131;-72
2022/08/11 10:01:48;;;;;;;3.33;1.73;;;30.00;61.20;;;;;;5097597;28;20032;-72
2022/08/11 10:04:21;;;;;;;4.57;1.40;;;30.20;63.50;;;;;;5092550;28;20058;-72
2022/08/11 10:07:02;;;;;;;4.30;1.50;;;30.40;63.70;;;;;;5079773;28;20039;-73
2022/08/11 10:09:47;;;;;;;2.78;1.23;;;30.50;59.60;;;;;;5087567;28;20193;-72
2022/08/11 10:12:31;;;;;;;3.40;1.35;;;30.70;60.10;;;;;;5099105;28;20501;-72
2022/08/11 10:20:50;;;;;;;5.13;1.30;;;30.90;57.20;;;;;;5112829;28;20441;-72
2022/08/11 10:28:48;;;;;;;4.97;1.35;;;31.30;56.20;;;;;;5110571;28;20049;-72
2022/08/11 10:34:00;;;;;;;2.58;1.20;;;31.50;54.70;;;;;;5099709;28;20047;-72
2022/08/11 10:36:41;;;;;;;6.15;1.50;;;31.50;52.70;;;;;;5099599;28;20038;-72
2022/08/11 10:39:07;;;;;;;3.83;1.10;;;31.60;53.00;;;;;;5097238;28;20039;-72
2022/08/11 10:44:20;;;;;;;6.50;1.50;;;31.80;52.60;;;;;;5106989;28;20123;-72
2022/08/11 10:49:32;;;;;;;3.55;1.20;;;32.20;50.60;;;;;;5116589;28;20043;-72
2022/08/11 11:00:15;;;;;;;1.95;1.00;;;32.70;50.90;;;;;;5091527;28;20406;-72
2022/08/11 11:02:43;;;;;;;2.90;1.00;;;32.80;47.80;;;;;;5104761;28;20050;-72
2022/08/11 11:05:23;;;;;;;4.10;0.90;;;32.80;49.20;;;;;;5097331;28;20036;-72
2022/08/11 11:07:53;;;;;;;5.55;1.33;;;33.00;49.50;;;;;;5087935;28;20119;-72
2022/08/11 11:10:20;;;;;;;3.40;1.15;;;33.00;49.00;;;;;;5095229;28;20338;-72
2022/08/11 11:18:27;;;;;;;3.53;1.05;;;33.30;47.90;;;;;;5079078;28;20054;-72
2022/08/11 11:21:03;;;;;;;6.18;1.13;;;33.40;48.00;;;;;;5095667;28;20111;-72
2022/08/11 11:24:10;;;;;;;2.85;1.00;;;33.60;47.80;;;;;;5065476;28;20044;-72
2022/08/11 11:26:42;;;;;;;3.47;1.05;;;33.70;46.30;;;;;;5089614;28;20097;-72
2022/08/11 11:29:54;;;;;;;2.55;0.98;;;33.80;46.10;;;;;;5079539;28;20728;-72
2022/08/11 11:32:28;;;;;;;1.80;0.98;;;33.90;44.70;;;;;;5069683;28;20135;-72
2022/08/11 11:35:12;;;;;;;3.25;1.17;;;33.80;44.90;;;;;;5047499;28;20036;-72
2022/08/11 11:37:39;;;;;;;4.32;1.10;;;34.00;46.10;;;;;;5081754;28;20072;-72
2022/08/11 11:40:10;;;;;;;5.03;0.90;;;34.10;45.70;;;;;;5065236;28;20043;-72
2022/08/11 11:42:40;;;;;;;2.95;0.90;;;34.20;44.60;;;;;;5093777;28;20104;-72
2022/08/11 11:45:07;;;;;;;2.63;1.10;;;34.10;44.90;;;;;;5057843;28;20067;-72
2022/08/11 11:47:35;;;;;;;1.77;0.90;;;34.30;43.90;;;;;;5072250;28;20063;-72
2022/08/11 11:50:02;;;;;;;1.17;0.90;;;34.50;44.10;;;;;;5080282;28;20115;-72
2022/08/11 11:52:28;;;;;;;1.95;1.10;;;34.60;43.10;;;;;;5077448;28;20093;-72
2022/08/11 11:54:56;;;;;;;3.33;1.00;;;34.60;45.80;;;;;;5089463;28;20036;-72
2022/08/11 12:03:00;;;;;;;4.22;1.10;;;34.60;43.90;;;;;;5068607;28;20044;-72
2022/08/11 12:05:27;;;;;;;5.68;1.00;;;34.70;43.80;;;;;;5068157;28;20044;-72
2022/08/11 12:10:49;;;;;;;4.00;1.10;;;34.90;44.00;;;;;;5088538;28;20123;-72
2022/08/11 12:16:02;;;;;;;4.10;1.00;;;35.00;42.50;;;;;;5076691;28;20045;-72
2022/08/11 12:18:35;;;;;;;1.40;0.93;;;35.00;43.70;;;;;;5070170;28;20050;-72
2022/08/11 12:21:03;;;;;;;2.92;0.80;;;35.20;40.90;;;;;;5076040;28;20050;-72
2022/08/11 12:29:03;;;;;;;12.95;1.40;;;35.40;42.50;;;;;;5059120;28;20051;-72
2022/08/11 12:31:31;;;;;;;2.47;0.80;;;35.50;40.60;;;;;;5084410;28;20497;-72
2022/08/11 12:34:08;;;;;;;3.83;1.02;;;35.60;41.40;;;;;;5056565;28;20040;-72
2022/08/11 12:36:47;;;;;;;2.97;0.70;;;35.60;42.00;;;;;;5065085;28;20040;-72
2022/08/11 12:39:18;;;;;;;4.57;1.00;;;35.70;41.20;;;;;;5080428;28;20078;-72
2022/08/11 12:47:19;;;;;;;4.68;0.88;;;35.70;40.30;;;;;;5082299;28;20040;-72
2022/08/11 12:52:44;;;;;;;4.07;1.20;;;35.80;39.40;;;;;;5093766;28;20516;-72
2022/08/11 12:58:14;;;;;;;2.15;0.70;;;35.90;40.90;;;;;;5073171;28;20056;-72
2022/08/11 12:58:15;;;;;;;4.53;0.82;;;36.00;41.20;;;;;;5069153;28;20642;-72
2022/08/11 13:06:12;;;;;;;3.38;0.80;;;36.20;40.00;;;;;;5073034;28;20048;-72
2022/08/11 13:08:41;;;;;;;2.65;0.73;;;36.30;39.70;;;;;;5083673;28;20487;-72
2022/08/11 13:13:55;;;;;;;2.20;0.77;;;36.50;40.60;;;;;;5093495;28;20044;-72
2022/08/11 13:16:26;;;;;;;1.65;0.80;;;36.60;39.60;;;;;;5078190;28;20407;-72
2022/08/11 13:18:52;;;;;;;2.58;1.00;;;36.60;38.20;;;;;;5087362;28;20514;-72
2022/08/11 13:21:19;;;;;;;7.10;0.80;;;36.70;38.30;;;;;;5098457;28;20528;-72
2022/08/11 13:23:45;;;;;;;2.38;0.82;;;36.70;39.00;;;;;;5093284;28;20040;-73
2022/08/11 13:26:12;;;;;;;2.70;0.80;;;36.80;38.60;;;;;;5099543;28;20035;-72
2022/08/11 13:28:39;;;;;;;2.63;0.57;;;36.90;38.60;;;;;;5100065;28;20136;-72
2022/08/11 13:31:13;;;;;;;2.25;0.70;;;37.00;39.00;;;;;;5079130;28;20556;-72
2022/08/11 13:33:45;;;;;;;4.35;0.80;;;37.00;38.90;;;;;;5097761;28;20093;-72
2022/08/11 13:36:11;;;;;;;3.42;0.60;;;37.00;38.90;;;;;;5079833;28;20108;-72
2022/08/11 13:38:40;;;;;;;4.07;0.90;;;36.90;39.60;;;;;;5097157;28;20040;-72
2022/08/11 13:41:36;;;;;;;2.67;0.98;;;37.10;38.10;;;;;;5071630;28;20071;-72
2022/08/11 13:43:53;;;;;;;1.60;0.70;;;37.10;38.20;;;;;;5103331;28;20121;-72
2022/08/11 13:46:21;;;;;;;10.25;0.80;;;37.20;37.70;;;;;;5091920;28;20156;-72
2022/08/11 13:48:48;;;;;;;2.20;0.80;;;37.40;38.20;;;;;;5084801;28;20058;-72
2022/08/11 13:51:29;;;;;;;2.38;1.00;;;37.50;38.10;;;;;;5095816;28;20032;-72
2022/08/11 13:54:02;;;;;;;4.60;0.98;;;37.50;36.80;;;;;;5096984;28;20051;-72
2022/08/11 13:56:29;;;;;;;3.33;0.80;;;37.60;37.90;;;;;;5097054;28;20498;-72
2022/08/11 13:58:56;;;;;;;2.47;0.90;;;37.70;37.20;;;;;;5109251;28;20063;-72
2022/08/11 14:01:25;;;;;;;3.25;0.80;;;37.60;37.40;;;;;;5083668;28;20040;-72
2022/08/11 14:03:52;;;;;;;4.82;0.95;;;37.70;38.20;;;;;;5079106;28;20036;-72
2022/08/11 14:06:20;;;;;;;5.22;0.88;;;37.70;38.20;;;;;;5093270;28;20056;-72
2022/08/11 14:08:48;;;;;;;6.75;0.90;;;37.70;38.50;;;;;;5091573;28;20043;-72
2022/08/11 14:14:03;;;;;;;12.07;1.02;;;37.70;37.30;;;;;;5084368;28;20135;-72
2022/08/11 14:16:33;;;;;;;6.55;0.90;;;37.60;36.30;;;;;;5085681;28;20073;-72
2022/08/11 14:19:07;;;;;;;5.88;0.90;;;37.70;37.30;;;;;;5091710;28;20032;-72
2022/08/11 14:24:26;;;;;;;2.05;0.70;;;37.80;38.10;;;;;;5073030;28;20526;-72
2022/08/11 14:26:52;;;;;;;3.20;0.70;;;38.00;37.40;;;;;;5083908;28;20086;-72
2022/08/11 14:29:20;;;;;;;3.55;0.88;;;38.10;38.70;;;;;;5075210;28;20067;-72
2022/08/11 14:31:57;;;;;;;14.80;1.27;;;38.10;38.20;;;;;;5094419;28;20551;-72
2022/08/11 14:34:28;;;;;;;3.45;0.80;;;38.30;38.50;;;;;;5071162;28;20040;-72
2022/08/11 14:37:00;;;;;;;3.97;0.88;;;38.20;37.90;;;;;;5057913;28;20044;-72
2022/08/11 14:39:37;;;;;;;2.83;0.70;;;38.10;37.20;;;;;;5064072;28;20047;-72
2022/08/11 14:47:49;;;;;;;4.60;0.93;;;38.10;37.50;;;;;;5070585;28;20044;-72
2022/08/11 14:50:22;;;;;;;4.20;1.05;;;38.00;38.50;;;;;;5076776;28;20036;-72
2022/08/11 14:53:06;;;;;;;2.42;0.75;;;38.00;36.90;;;;;;5090200;28;20103;-72
2022/08/11 14:58:23;;;;;;;1.85;0.80;;;38.10;36.40;;;;;;5095416;28;20080;-72
2022/08/11 15:00:53;;;;;;;2.97;1.00;;;38.10;38.40;;;;;;5051970;28;20032;-72
2022/08/11 15:03:20;;;;;;;2.03;0.90;;;38.10;38.00;;;;;;5072006;28;20051;-72
2022/08/11 15:05:51;;;;;;;4.82;0.70;;;38.00;37.80;;;;;;5076879;28;20046;-72
2022/08/11 15:08:19;;;;;;;2.38;0.90;;;38.10;38.50;;;;;;5063294;28;20040;-72
2022/08/11 15:10:47;;;;;;;5.28;0.77;;;38.20;37.20;;;;;;5095103;28;20135;-72
2022/08/11 15:13:17;;;;;;;3.63;0.88;;;38.30;37.60;;;;;;5094456;28;20085;-72
2022/08/11 15:18:31;;;;;;;1.55;0.70;;;38.50;38.00;;;;;;5076368;28;20044;-72
2022/08/11 15:37:54;;;;;;;4.03;0.88;;;38.40;37.20;;;;;;5078953;28;20074;-72
2022/08/11 15:46:30;;;;;;;4.40;0.75;;;38.80;36.80;;;;;;5064917;28;20040;-72
2022/08/11 15:49:00;;;;;;;3.25;0.90;;;38.80;36.40;;;;;;5059338;28;20048;-72
2022/08/11 15:51:39;;;;;;;2.60;0.73;;;38.90;35.80;;;;;;5056089;28;20036;-72
2022/08/11 15:54:10;;;;;;;18.58;1.55;;;38.80;36.20;;;;;;5069589;28;20493;-72
2022/08/11 15:56:42;;;;;;;5.13;0.90;;;38.80;37.90;;;;;;5065214;28;20032;-72
2022/08/11 16:04:37;;;;;;;3.85;0.80;;;38.70;37.30;;;;;;5059224;28;20048;-72
2022/08/11 16:07:10;;;;;;;2.22;0.63;;;38.80;37.50;;;;;;5072272;28;20123;-72
2022/08/11 16:10:00;;;;;;;5.78;0.90;;;38.80;35.80;;;;;;5059236;28;20123;-72
2022/08/11 16:12:29;;;;;;;2.05;0.70;;;38.70;36.20;;;;;;5059016;28;20059;-72
2022/08/11 16:17:57;;;;;;;4.72;0.80;;;38.60;36.70;;;;;;5069709;28;20123;-72
2022/08/11 16:20:26;;;;;;;3.58;0.77;;;38.60;36.50;;;;;;5059326;28;20039;-72
2022/08/11 16:22:56;;;;;;;6.78;0.82;;;38.50;36.30;;;;;;5093466;28;20032;-72
2022/08/11 16:25:24;;;;;;;5.18;0.80;;;38.50;37.00;;;;;;5088985;28;20403;-72
2022/08/11 16:27:57;;;;;;;7.55;0.80;;;38.50;36.10;;;;;;5091732;28;20446;-72
2022/08/11 16:30:23;;;;;;;4.20;0.80;;;38.50;35.80;;;;;;5093580;28;20036;-72
2022/08/11 16:32:51;;;;;;;5.22;0.90;;;38.40;35.60;;;;;;5070745;28;20041;-72
2022/08/11 16:40:59;;;;;;;5.18;0.95;;;38.20;37.00;;;;;;5075411;28;20484;-72
2022/08/11 16:49:36;;;;;;;3.73;0.73;;;37.80;37.40;;;;;;5071820;28;20048;-72
2022/08/11 16:52:09;;;;;;;1.92;0.70;;;37.60;37.90;;;;;;5039067;28;20444;-72
2022/08/11 16:54:36;;;;;;;3.00;0.73;;;37.50;37.30;;;;;;5043675;28;20049;-72
2022/08/11 16:59:57;;;;;;;3.15;0.88;;;37.50;36.60;;;;;;5063993;28;20044;-72
2022/08/11 17:13:41;;;;;;;1.58;0.85;;;36.50;38.30;;;;;;5078629;28;20508;-72
2022/08/11 17:16:11;;;;;;;4.25;1.00;;;36.00;39.00;;;;;;5065953;28;20410;-72
2022/08/11 17:18:55;;;;;;;5.22;1.10;;;35.40;40.70;;;;;;5075662;28;20486;-72
2022/08/11 17:21:28;;;;;;;3.55;0.80;;;34.90;41.80;;;;;;5075555;28;20318;-72
2022/08/11 17:23:58;;;;;;;1.92;0.88;;;34.50;41.40;;;;;;5074027;28;20494;-72
2022/08/11 17:29:35;;;;;;;2.33;1.00;;;33.50;42.90;;;;;;5064569;28;20056;-72
2022/08/11 17:37:36;;;;;;;2.95;1.10;;;32.10;44.60;;;;;;5065579;28;20482;-72
2022/08/11 17:40:05;;;;;;;8.98;1.30;;;31.70;45.40;;;;;;5071474;28;20517;-72
2022/08/11 17:50:54;;;;;;;6.00;1.10;;;30.70;47.00;;;;;;5074949;28;20387;-72
2022/08/11 18:01:38;;;;;;;3.20;0.93;;;30.20;49.30;;;;;;5068481;28;20052;-71
2022/08/11 18:04:08;;;;;;;4.15;1.10;;;30.00;50.40;;;;;;5044742;28;20040;-72
2022/08/11 18:06:35;;;;;;;2.33;1.00;;;29.90;50.10;;;;;;5062863;28;20102;-72
